AirNav   Air Wisconsin Up To $57,000 Bonus
 
 1053 users online  

2CL7 Glendale Plaza Emergency Heliport
Glendale, California, USA

GOING TO GLENDALE?


FAA INFORMATION EFFECTIVE 31 DECEMBER 2020

Location

FAA Identifier: 2CL7
Lat/Long: 34-09-20.2500N 118-15-31.0000W
34-09.337500N 118-15.516667W
34.1556250,-118.2586111
(estimated)
Elevation: 904 ft. / 276 m (estimated)
Variation: 14E (1995)
Time zone: UTC -8 (UTC -7 during Daylight Saving Time)
Zip code: 91203

Heliport Operations

Heliport use: Private use, EMERGENCY USE ONLY BY PUBLIC SERVICE AGENCIES.
Activation date: 09/1999
Control tower: no
ARTCC: LOS ANGELES CENTER
FSS: HAWTHORNE FLIGHT SERVICE STATION
Attendance: CONTINUOUS
Wind indicator: lighted
Segmented circle: no
Lights: SS-SR

Heliport Communications

WX ASOS at BUR (6 nm NW): PHONE 818-841-1384
WX AWOS-3PT at WHP (10 nm NW): 132.1 (818-899-9820)
WX AWOS-3PT at EMT (12 nm E): 118.75 ((626) 444-1107)
WX ASOS at VNY (12 nm W): PHONE 818-904-9213
WX ASOS at SMO (13 nm SW): PHONE 310-392-6453
WX ASOS at HHR (14 nm S): PHONE 310-973-8930
WX ASOS at LAX (15 nm SW): PHONE 310-568-1486
WX AWOS-3PT at CPM (16 nm S): 127.150 (310-631-4958)

Nearby radio navigation aids

VOR radial/distance  VOR name  Freq  Var
VNYr094/12.3VAN NUYS VOR/DME113.1015E
SMOr033/13.2SANTA MONICA VOR/DME110.8015E
LAXr018/15.9LOS ANGELES VORTAC113.6015E
POMr266/23.9POMONA VORTAC110.4015E
SLIr321/24.5SEAL BEACH VORTAC115.7015E
PMDr184/30.1PALMDALE VORTAC114.5015E
FIMr096/33.2FILLMORE VORTAC112.5015E
LHSr139/35.3LAKE HUGHES VORTAC114.3515E
PDZr276/38.9PARADISE VORTAC112.2015E
ELBr304/39.0EL TORO VOR/DME117.2014E
VTUr071/39.4VENTURA VOR/DME108.2015E

Heliport Services

Runway Information

Helipad H1

Dimensions: 50 x 50 ft. / 15 x 15 m
Surface: concrete
Runway edge lights: PERI
RY H1 NSTD AMBER PERIMETER LGTS.
Latitude: 34-09.337500N
Longitude: 118-15.516667W
Elevation: 904.0 ft.
Traffic pattern: leftleft

Heliport Ownership and Management from official FAA records

Ownership: Privately-owned
Owner: PACTEH PARTNERS
655 NORTH CENTRAL
GLENDALE, CA 91203
Phone 818-550-9340
Manager: BILL TUCKER
655 NORTH CENTRAL
GLENDALE, CA 91203
Phone 818-550-9340

Additional Remarks

ROOFTOP HELIPAD.
FOR CD CTC LOS ANGELES ARTCC AT 661-575-2079.

Instrument Procedures

There are no published instrument procedures at 2CL7.

Some nearby airports with instrument procedures:

KBUR - Bob Hope Airport (6 nm NW)
KWHP - Whiteman Airport (10 nm NW)
KEMT - San Gabriel Valley Airport (12 nm E)
KVNY - Van Nuys Airport (12 nm W)
KSMO - Santa Monica Municipal Airport (13 nm SW)
KHHR - Jack Northrop Field/Hawthorne Municipal Airport (14 nm S)
KLAX - Los Angeles International Airport (15 nm SW)
 
Loc | Ops | Rwys | IFR | FBO | Links
Com | Nav | Svcs | Stats | Notes
Area around 2CL7 (Glendale Plaza Emergency Heliport)
 
Road maps at: MapQuest Bing Google
 
Aerial photo
No photo
 
Sectional chart

 
Airport distance calculator
Flying to Glendale Plaza Emergency Heliport? Find the distance to fly.

From to 2CL7

Sunrise and sunset
Times for 18-Jan-2021
 Local
(UTC-8)
 Zulu
(UTC)
Morning civil twilight06:3214:32
Sunrise06:5914:59
Sunset17:0801:08
Evening civil twilight17:3501:35

Current date and time
Zulu (UTC)  18-Jan-2021 14:51:53
Local (UTC-8)  18-Jan-2021 06:51:53
 
METAR
KBUR 
6nm NW 
181353Z 00000KT 10SM CLR 11/M03 A2985 RMK AO2 SLP100 T01061028 $
KCQT 
6nm S 
181352Z AUTO 00000KT 10SM CLR 12/02 A2985 RMK AO2 SLP106 T01220017
KWHP 
10nm NW 
180255Z 00000KT 10SM SKC 22/M05 A2998
KVNY 
12nm W 
181351Z AUTO 00000KT 10SM CLR 11/00 A2985 RMK AO2 SLP103 T01060000
KSMO 
13nm SW 
181351Z AUTO 00000KT 10SM CLR 12/02 A2985 RMK AO2 SLP107 T01220017 $
KEMT 
13nm SE 
180345Z 00000KT 10SM CLR 18/03 A2994
KLAX 
15nm SW 
181353Z 00000KT 10SM CLR 14/05 A2986 RMK AO2 SLP108 T01390050
KHHR 
15nm S 
181353Z AUTO 00000KT 10SM CLR 12/04 A2986 RMK AO2 SLP110 T01220039 $
TAF
KBUR 
6nm NW 
181136Z 1812/1912 VRB03KT P6SM SKC FM182100 12005KT P6SM SKC FM190300 VRB03KT P6SM SCT200 FM190900 02010KT P6SM SCT200
KVNY 
12nm W 
181136Z 1812/1912 VRB03KT P6SM SKC FM181800 01015KT P6SM SCT200 FM190200 36008KT P6SM SCT200 FM190900 36015G25KT P6SM SCT200
KSMO 
13nm SW 
181136Z 1812/1912 06004KT P6SM SKC FM182000 23005KT P6SM SCT200 FM190200 VRB03KT P6SM SCT200 FM190900 05006KT P6SM SCT200
KLAX 
15nm SW 
181136Z 1812/1918 VRB03KT P6SM SKC FM182100 26008KT P6SM SCT200 FM190400 VRB03KT P6SM SCT200 FM191200 07007KT P6SM SCT200
NOTAMs
Click for the latest NOTAMs
NOTAMs are issued by the DoD/FAA and will open in a separate window not controlled by AirNav.

 

 
 

Would you like to see your business listed on this page?

 If your business provides an interesting product or service to pilots, flight crews, aircraft, or users of the Glendale Plaza Emergency Heliport, you should consider listing it here.  To start the listing process, click on the button below
 
Add a business
 

Other Pages about Glendale Plaza Emergency Heliport

Update a link
 
Copyright © AirNav, LLC. All rights reserved. Privacy Policy  Contact